sensor_id;sensor_type;location;lat;lon;timestamp;temperature;humidity
52321;DHT22;38261;54.090;13.382;2022-07-29T00:00:35;13.10;99.90
52321;DHT22;38261;54.090;13.382;2022-07-29T00:01:57;13.00;99.90
52321;DHT22;38261;54.090;13.382;2022-07-29T00:03:19;13.00;99.90
52321;DHT22;38261;54.090;13.382;2022-07-29T00:04:41;13.00;99.90
52321;DHT22;38261;54.090;13.382;2022-07-29T00:06:04;13.00;99.90
52321;DHT22;38261;54.090;13.382;2022-07-29T00:07:26;13.00;99.90
52321;DHT22;38261;54.090;13.382;2022-07-29T00:08:48;13.00;99.90
52321;DHT22;38261;54.090;13.382;2022-07-29T00:10:11;13.00;99.90
52321;DHT22;38261;54.090;13.382;2022-07-29T00:11:33;13.00;99.90
52321;DHT22;38261;54.090;13.382;2022-07-29T00:12:55;13.00;99.90
52321;DHT22;38261;54.090;13.382;2022-07-29T00:14:17;13.00;99.90
52321;DHT22;38261;54.090;13.382;2022-07-29T00:15:40;13.00;99.90
52321;DHT22;38261;54.090;13.382;2022-07-29T00:17:02;12.90;99.90
52321;DHT22;38261;54.090;13.382;2022-07-29T00:18:24;12.90;99.90
52321;DHT22;38261;54.090;13.382;2022-07-29T00:19:46;12.90;99.90
52321;DHT22;38261;54.090;13.382;2022-07-29T00:21:08;12.90;99.90
52321;DHT22;38261;54.090;13.382;2022-07-29T00:22:30;12.90;99.90
52321;DHT22;38261;54.090;13.382;2022-07-29T00:23:52;12.90;99.90
52321;DHT22;38261;54.090;13.382;2022-07-29T00:25:15;12.90;99.90
52321;DHT22;38261;54.090;13.382;2022-07-29T00:26:37;12.90;99.90
52321;DHT22;38261;54.090;13.382;2022-07-29T00:27:59;12.80;99.90
52321;DHT22;38261;54.090;13.382;2022-07-29T00:29:22;12.80;99.90
52321;DHT22;38261;54.090;13.382;2022-07-29T00:31:00;12.80;99.90
52321;DHT22;38261;54.090;13.382;2022-07-29T00:32:22;12.80;99.90
52321;DHT22;38261;54.090;13.382;2022-07-29T00:33:44;12.80;99.90
52321;DHT22;38261;54.090;13.382;2022-07-29T00:35:07;12.80;99.90
52321;DHT22;38261;54.090;13.382;2022-07-29T00:36:47;12.80;99.90
52321;DHT22;38261;54.090;13.382;2022-07-29T00:38:15;12.80;99.90
52321;DHT22;38261;54.090;13.382;2022-07-29T00:39:38;12.70;99.90
52321;DHT22;38261;54.090;13.382;2022-07-29T00:41:00;12.70;99.90
52321;DHT22;38261;54.090;13.382;2022-07-29T00:42:22;12.70;99.90
52321;DHT22;38261;54.090;13.382;2022-07-29T00:43:45;12.60;99.90
52321;DHT22;38261;54.090;13.382;2022-07-29T00:45:07;12.60;99.90
52321;DHT22;38261;54.090;13.382;2022-07-29T00:46:30;12.60;99.90
52321;DHT22;38261;54.090;13.382;2022-07-29T00:47:52;12.60;99.90
52321;DHT22;38261;54.090;13.382;2022-07-29T00:49:14;12.60;99.90
52321;DHT22;38261;54.090;13.382;2022-07-29T00:50:37;12.60;99.90
52321;DHT22;38261;54.090;13.382;2022-07-29T00:52:04;12.60;99.90
52321;DHT22;38261;54.090;13.382;2022-07-29T00:53:27;12.50;99.90
52321;DHT22;38261;54.090;13.382;2022-07-29T00:54:49;12.60;99.90
52321;DHT22;38261;54.090;13.382;2022-07-29T00:56:11;12.50;99.90
52321;DHT22;38261;54.090;13.382;2022-07-29T00:57:35;12.50;99.90
52321;DHT22;38261;54.090;13.382;2022-07-29T00:58:58;12.50;99.90
52321;DHT22;38261;54.090;13.382;2022-07-29T01:00:24;12.50;99.90
52321;DHT22;38261;54.090;13.382;2022-07-29T01:01:47;12.50;99.90
52321;DHT22;38261;54.090;13.382;2022-07-29T01:03:09;12.50;99.90
52321;DHT22;38261;54.090;13.382;2022-07-29T01:04:32;12.50;99.90
52321;DHT22;38261;54.090;13.382;2022-07-29T01:05:54;12.50;99.90
52321;DHT22;38261;54.090;13.382;2022-07-29T01:07:17;12.50;99.90
52321;DHT22;38261;54.090;13.382;2022-07-29T01:08:40;12.40;99.90
52321;DHT22;38261;54.090;13.382;2022-07-29T01:10:07;12.40;99.90
52321;DHT22;38261;54.090;13.382;2022-07-29T01:11:29;12.40;99.90
52321;DHT22;38261;54.090;13.382;2022-07-29T01:12:53;12.40;99.90
52321;DHT22;38261;54.090;13.382;2022-07-29T01:14:16;12.40;99.90
52321;DHT22;38261;54.090;13.382;2022-07-29T01:15:50;12.30;99.90
52321;DHT22;38261;54.090;13.382;2022-07-29T01:17:29;12.30;99.90
52321;DHT22;38261;54.090;13.382;2022-07-29T01:18:56;12.30;99.90
52321;DHT22;38261;54.090;13.382;2022-07-29T01:20:25;12.30;99.90
52321;DHT22;38261;54.090;13.382;2022-07-29T01:21:57;12.30;99.90
52321;DHT22;38261;54.090;13.382;2022-07-29T01:30:06;12.20;99.90
52321;DHT22;38261;54.090;13.382;2022-07-29T01:31:42;12.20;99.90
52321;DHT22;38261;54.090;13.382;2022-07-29T01:33:22;12.20;99.90
52321;DHT22;38261;54.090;13.382;2022-07-29T01:36:40;12.10;99.90
52321;DHT22;38261;54.090;13.382;2022-07-29T01:38:19;12.10;99.90
52321;DHT22;38261;54.090;13.382;2022-07-29T01:39:43;12.10;99.90
52321;DHT22;38261;54.090;13.382;2022-07-29T01:41:14;12.00;99.90
52321;DHT22;38261;54.090;13.382;2022-07-29T01:42:43;12.00;99.90
52321;DHT22;38261;54.090;13.382;2022-07-29T01:44:13;12.00;99.90
52321;DHT22;38261;54.090;13.382;2022-07-29T01:45:40;12.00;99.90
52321;DHT22;38261;54.090;13.382;2022-07-29T01:47:09;11.90;99.90
52321;DHT22;38261;54.090;13.382;2022-07-29T01:48:54;11.90;99.90
52321;DHT22;38261;54.090;13.382;2022-07-29T01:50:20;11.90;99.90
52321;DHT22;38261;54.090;13.382;2022-07-29T01:51:51;11.80;99.90
52321;DHT22;38261;54.090;13.382;2022-07-29T01:53:21;11.80;99.90
52321;DHT22;38261;54.090;13.382;2022-07-29T01:54:52;11.80;99.90
52321;DHT22;38261;54.090;13.382;2022-07-29T01:56:19;11.80;99.90
52321;DHT22;38261;54.090;13.382;2022-07-29T01:57:45;11.80;99.90
52321;DHT22;38261;54.090;13.382;2022-07-29T01:59:09;11.80;99.90
52321;DHT22;38261;54.090;13.382;2022-07-29T02:00:33;11.70;99.90
52321;DHT22;38261;54.090;13.382;2022-07-29T02:01:58;11.70;99.90
52321;DHT22;38261;54.090;13.382;2022-07-29T02:03:21;11.70;99.90
52321;DHT22;38261;54.090;13.382;2022-07-29T02:04:47;11.80;99.90
52321;DHT22;38261;54.090;13.382;2022-07-29T02:06:12;11.80;99.90
52321;DHT22;38261;54.090;13.382;2022-07-29T02:07:37;11.80;99.90
52321;DHT22;38261;54.090;13.382;2022-07-29T02:09:00;11.80;99.90
52321;DHT22;38261;54.090;13.382;2022-07-29T02:10:27;11.80;99.90
52321;DHT22;38261;54.090;13.382;2022-07-29T02:11:53;11.80;99.90
52321;DHT22;38261;54.090;13.382;2022-07-29T02:13:16;11.80;99.90
52321;DHT22;38261;54.090;13.382;2022-07-29T02:14:43;11.80;99.90
52321;DHT22;38261;54.090;13.382;2022-07-29T02:16:08;11.80;99.90
52321;DHT22;38261;54.090;13.382;2022-07-29T02:17:35;11.80;99.90
52321;DHT22;38261;54.090;13.382;2022-07-29T02:19:03;11.80;99.90
52321;DHT22;38261;54.090;13.382;2022-07-29T02:20:26;11.80;99.90
52321;DHT22;38261;54.090;13.382;2022-07-29T02:21:51;11.80;99.90
52321;DHT22;38261;54.090;13.382;2022-07-29T02:23:22;11.80;99.90
52321;DHT22;38261;54.090;13.382;2022-07-29T02:24:46;11.80;99.90
52321;DHT22;38261;54.090;13.382;2022-07-29T02:26:09;11.80;99.90
52321;DHT22;38261;54.090;13.382;2022-07-29T02:27:33;11.70;99.90
52321;DHT22;38261;54.090;13.382;2022-07-29T02:28:57;11.70;99.90
52321;DHT22;38261;54.090;13.382;2022-07-29T02:30:22;11.70;99.90
52321;DHT22;38261;54.090;13.382;2022-07-29T02:31:45;11.70;99.90
52321;DHT22;38261;54.090;13.382;2022-07-29T02:33:12;11.70;99.90
52321;DHT22;38261;54.090;13.382;2022-07-29T02:34:36;11.70;99.90
52321;DHT22;38261;54.090;13.382;2022-07-29T02:36:02;11.70;99.90
52321;DHT22;38261;54.090;13.382;2022-07-29T02:37:25;11.70;99.90
52321;DHT22;38261;54.090;13.382;2022-07-29T02:38:49;11.70;99.90
52321;DHT22;38261;54.090;13.382;2022-07-29T02:40:14;11.70;99.90
52321;DHT22;38261;54.090;13.382;2022-07-29T02:41:48;11.60;99.90
52321;DHT22;38261;54.090;13.382;2022-07-29T02:43:12;11.60;99.90
52321;DHT22;38261;54.090;13.382;2022-07-29T02:44:34;11.60;99.90
52321;DHT22;38261;54.090;13.382;2022-07-29T02:45:56;11.60;99.90
52321;DHT22;38261;54.090;13.382;2022-07-29T02:49:10;11.60;99.90
52321;DHT22;38261;54.090;13.382;2022-07-29T02:50:39;11.60;99.90
52321;DHT22;38261;54.090;13.382;2022-07-29T02:52:16;11.50;99.90
52321;DHT22;38261;54.090;13.382;2022-07-29T02:53:41;11.50;99.90
52321;DHT22;38261;54.090;13.382;2022-07-29T02:55:18;11.50;99.90
52321;DHT22;38261;54.090;13.382;2022-07-29T02:56:42;11.40;99.90
52321;DHT22;38261;54.090;13.382;2022-07-29T02:58:12;11.40;99.90
52321;DHT22;38261;54.090;13.382;2022-07-29T02:59:36;11.40;99.90
52321;DHT22;38261;54.090;13.382;2022-07-29T03:01:13;11.40;99.90
52321;DHT22;38261;54.090;13.382;2022-07-29T03:02:44;11.40;99.90
52321;DHT22;38261;54.090;13.382;2022-07-29T03:04:09;11.40;99.90
52321;DHT22;38261;54.090;13.382;2022-07-29T03:05:32;11.40;99.90
52321;DHT22;38261;54.090;13.382;2022-07-29T03:06:55;11.40;99.90
52321;DHT22;38261;54.090;13.382;2022-07-29T03:08:20;11.40;99.90
52321;DHT22;38261;54.090;13.382;2022-07-29T03:09:42;11.40;99.90
52321;DHT22;38261;54.090;13.382;2022-07-29T03:11:05;11.40;99.90
52321;DHT22;38261;54.090;13.382;2022-07-29T03:12:29;11.40;99.90
52321;DHT22;38261;54.090;13.382;2022-07-29T03:13:53;11.50;99.90
52321;DHT22;38261;54.090;13.382;2022-07-29T03:15:15;11.50;99.90
52321;DHT22;38261;54.090;13.382;2022-07-29T03:16:38;11.50;99.90
52321;DHT22;38261;54.090;13.382;2022-07-29T03:18:02;11.50;99.90
52321;DHT22;38261;54.090;13.382;2022-07-29T03:19:24;11.60;99.90
52321;DHT22;38261;54.090;13.382;2022-07-29T03:20:48;11.60;99.90
52321;DHT22;38261;54.090;13.382;2022-07-29T03:22:10;11.60;99.90
52321;DHT22;38261;54.090;13.382;2022-07-29T03:23:32;11.60;99.90
52321;DHT22;38261;54.090;13.382;2022-07-29T03:24:57;11.70;99.90
52321;DHT22;38261;54.090;13.382;2022-07-29T03:26:19;11.70;99.90
52321;DHT22;38261;54.090;13.382;2022-07-29T03:27:42;11.70;99.90
52321;DHT22;38261;54.090;13.382;2022-07-29T03:29:05;11.80;99.90
52321;DHT22;38261;54.090;13.382;2022-07-29T03:30:27;11.80;99.90
52321;DHT22;38261;54.090;13.382;2022-07-29T03:31:53;11.90;99.90
52321;DHT22;38261;54.090;13.382;2022-07-29T03:33:15;11.90;99.90
52321;DHT22;38261;54.090;13.382;2022-07-29T03:34:38;12.00;99.90
52321;DHT22;38261;54.090;13.382;2022-07-29T03:36:00;12.00;99.90
52321;DHT22;38261;54.090;13.382;2022-07-29T03:37:24;12.10;99.90
52321;DHT22;38261;54.090;13.382;2022-07-29T03:38:47;12.20;99.90
52321;DHT22;38261;54.090;13.382;2022-07-29T03:40:13;12.30;99.90
52321;DHT22;38261;54.090;13.382;2022-07-29T03:41:38;12.40;99.90
52321;DHT22;38261;54.090;13.382;2022-07-29T03:43:03;12.50;99.90
52321;DHT22;38261;54.090;13.382;2022-07-29T03:44:28;12.50;99.90
52321;DHT22;38261;54.090;13.382;2022-07-29T03:45:52;12.60;99.90
52321;DHT22;38261;54.090;13.382;2022-07-29T03:47:18;12.70;99.90
52321;DHT22;38261;54.090;13.382;2022-07-29T03:48:45;12.80;99.90
52321;DHT22;38261;54.090;13.382;2022-07-29T03:50:11;12.90;99.90
52321;DHT22;38261;54.090;13.382;2022-07-29T03:51:34;13.00;99.90
52321;DHT22;38261;54.090;13.382;2022-07-29T03:52:57;13.10;99.90
52321;DHT22;38261;54.090;13.382;2022-07-29T03:54:19;13.30;99.90
52321;DHT22;38261;54.090;13.382;2022-07-29T03:55:48;13.60;99.90
52321;DHT22;38261;54.090;13.382;2022-07-29T03:57:13;14.10;99.90
52321;DHT22;38261;54.090;13.382;2022-07-29T03:58:37;14.90;99.90
52321;DHT22;38261;54.090;13.382;2022-07-29T04:00:02;15.70;99.90
52321;DHT22;38261;54.090;13.382;2022-07-29T04:01:28;16.50;99.90
52321;DHT22;38261;54.090;13.382;2022-07-29T04:02:50;17.20;99.90
52321;DHT22;38261;54.090;13.382;2022-07-29T04:04:13;17.90;98.80
52321;DHT22;38261;54.090;13.382;2022-07-29T04:05:35;18.60;97.30
52321;DHT22;38261;54.090;13.382;2022-07-29T04:06:58;19.30;95.80
52321;DHT22;38261;54.090;13.382;2022-07-29T04:08:20;19.70;94.60
52321;DHT22;38261;54.090;13.382;2022-07-29T04:09:42;20.10;94.00
52321;DHT22;38261;54.090;13.382;2022-07-29T04:11:04;20.40;93.30
52321;DHT22;38261;54.090;13.382;2022-07-29T04:12:26;20.80;92.80
52321;DHT22;38261;54.090;13.382;2022-07-29T04:13:48;21.30;92.10
52321;DHT22;38261;54.090;13.382;2022-07-29T04:15:11;21.80;91.50
52321;DHT22;38261;54.090;13.382;2022-07-29T04:16:33;22.20;91.50
52321;DHT22;38261;54.090;13.382;2022-07-29T04:17:55;22.50;91.10
52321;DHT22;38261;54.090;13.382;2022-07-29T04:19:18;22.70;90.70
52321;DHT22;38261;54.090;13.382;2022-07-29T04:20:40;23.00;90.40
52321;DHT22;38261;54.090;13.382;2022-07-29T04:22:02;23.30;90.10
52321;DHT22;38261;54.090;13.382;2022-07-29T04:23:25;23.50;89.20
52321;DHT22;38261;54.090;13.382;2022-07-29T04:24:48;23.50;87.80
52321;DHT22;38261;54.090;13.382;2022-07-29T04:26:10;23.50;86.30
52321;DHT22;38261;54.090;13.382;2022-07-29T04:27:32;23.40;86.00
52321;DHT22;38261;54.090;13.382;2022-07-29T04:28:54;23.20;85.70
52321;DHT22;38261;54.090;13.382;2022-07-29T04:30:16;23.00;85.80
52321;DHT22;38261;54.090;13.382;2022-07-29T04:31:39;22.80;85.90
52321;DHT22;38261;54.090;13.382;2022-07-29T04:33:03;22.60;85.90
52321;DHT22;38261;54.090;13.382;2022-07-29T04:34:25;22.50;86.00
52321;DHT22;38261;54.090;13.382;2022-07-29T04:35:49;22.30;86.50
52321;DHT22;38261;54.090;13.382;2022-07-29T04:37:15;22.00;87.20
52321;DHT22;38261;54.090;13.382;2022-07-29T04:38:38;21.70;87.70
52321;DHT22;38261;54.090;13.382;2022-07-29T04:40:00;21.30;88.60
52321;DHT22;38261;54.090;13.382;2022-07-29T04:41:23;20.90;89.50
52321;DHT22;38261;54.090;13.382;2022-07-29T04:42:54;20.50;90.20
52321;DHT22;38261;54.090;13.382;2022-07-29T04:44:21;20.20;90.90
52321;DHT22;38261;54.090;13.382;2022-07-29T04:45:50;20.00;91.30
52321;DHT22;38261;54.090;13.382;2022-07-29T04:47:12;20.00;91.40
52321;DHT22;38261;54.090;13.382;2022-07-29T04:48:34;20.10;91.30
52321;DHT22;38261;54.090;13.382;2022-07-29T04:49:57;20.30;91.40
52321;DHT22;38261;54.090;13.382;2022-07-29T04:51:19;20.40;91.20
52321;DHT22;38261;54.090;13.382;2022-07-29T04:52:41;20.40;91.10
52321;DHT22;38261;54.090;13.382;2022-07-29T04:54:03;20.40;91.30
52321;DHT22;38261;54.090;13.382;2022-07-29T04:55:25;20.50;91.30
52321;DHT22;38261;54.090;13.382;2022-07-29T04:56:48;20.70;91.10
52321;DHT22;38261;54.090;13.382;2022-07-29T04:58:10;20.90;90.90
52321;DHT22;38261;54.090;13.382;2022-07-29T04:59:32;21.10;90.80
52321;DHT22;38261;54.090;13.382;2022-07-29T05:00:55;21.20;90.60
52321;DHT22;38261;54.090;13.382;2022-07-29T05:02:17;21.50;90.70
52321;DHT22;38261;54.090;13.382;2022-07-29T05:03:39;21.80;90.40
52321;DHT22;38261;54.090;13.382;2022-07-29T05:05:01;22.20;90.50
52321;DHT22;38261;54.090;13.382;2022-07-29T05:06:23;22.40;90.00
52321;DHT22;38261;54.090;13.382;2022-07-29T05:07:45;22.40;90.10
52321;DHT22;38261;54.090;13.382;2022-07-29T05:09:07;22.50;91.00
52321;DHT22;38261;54.090;13.382;2022-07-29T05:10:29;22.80;90.90
52321;DHT22;38261;54.090;13.382;2022-07-29T05:11:52;23.30;90.90
52321;DHT22;38261;54.090;13.382;2022-07-29T05:13:14;23.80;91.00
52321;DHT22;38261;54.090;13.382;2022-07-29T05:14:36;24.20;90.30
52321;DHT22;38261;54.090;13.382;2022-07-29T05:15:58;24.70;90.10
52321;DHT22;38261;54.090;13.382;2022-07-29T05:17:20;25.30;89.70
52321;DHT22;38261;54.090;13.382;2022-07-29T05:18:42;25.70;88.50
52321;DHT22;38261;54.090;13.382;2022-07-29T05:20:05;26.10;87.90
52321;DHT22;38261;54.090;13.382;2022-07-29T05:21:27;26.40;87.10
52321;DHT22;38261;54.090;13.382;2022-07-29T05:22:49;26.70;86.20
52321;DHT22;38261;54.090;13.382;2022-07-29T05:24:12;26.30;86.60
52321;DHT22;38261;54.090;13.382;2022-07-29T05:25:36;26.00;86.90
52321;DHT22;38261;54.090;13.382;2022-07-29T05:27:05;25.50;88.20
52321;DHT22;38261;54.090;13.382;2022-07-29T05:28:27;25.40;88.90
52321;DHT22;38261;54.090;13.382;2022-07-29T05:29:49;25.40;89.10
52321;DHT22;38261;54.090;13.382;2022-07-29T05:31:11;25.40;89.10
52321;DHT22;38261;54.090;13.382;2022-07-29T05:32:36;25.50;89.30
52321;DHT22;38261;54.090;13.382;2022-07-29T05:33:58;25.40;89.20
52321;DHT22;38261;54.090;13.382;2022-07-29T05:35:20;25.20;89.70
52321;DHT22;38261;54.090;13.382;2022-07-29T05:36:42;24.90;90.20
52321;DHT22;38261;54.090;13.382;2022-07-29T05:38:04;24.90;90.20
52321;DHT22;38261;54.090;13.382;2022-07-29T05:39:28;24.90;90.30
52321;DHT22;38261;54.090;13.382;2022-07-29T05:41:10;24.80;90.30
52321;DHT22;38261;54.090;13.382;2022-07-29T05:42:32;24.50;90.70
52321;DHT22;38261;54.090;13.382;2022-07-29T05:43:54;24.40;90.90
52321;DHT22;38261;54.090;13.382;2022-07-29T05:45:16;24.20;91.20
52321;DHT22;38261;54.090;13.382;2022-07-29T05:46:38;24.20;91.30
52321;DHT22;38261;54.090;13.382;2022-07-29T05:48:01;24.40;91.20
52321;DHT22;38261;54.090;13.382;2022-07-29T05:49:23;24.60;91.00
52321;DHT22;38261;54.090;13.382;2022-07-29T05:50:48;24.40;91.10
52321;DHT22;38261;54.090;13.382;2022-07-29T05:52:10;24.30;91.30
52321;DHT22;38261;54.090;13.382;2022-07-29T05:53:32;24.20;91.30
52321;DHT22;38261;54.090;13.382;2022-07-29T05:54:55;24.10;91.60
52321;DHT22;38261;54.090;13.382;2022-07-29T05:56:18;24.10;91.80
52321;DHT22;38261;54.090;13.382;2022-07-29T05:57:40;24.10;91.70
52321;DHT22;38261;54.090;13.382;2022-07-29T05:59:02;24.00;91.80
52321;DHT22;38261;54.090;13.382;2022-07-29T06:00:38;23.80;91.90
52321;DHT22;38261;54.090;13.382;2022-07-29T06:02:01;23.60;92.30
52321;DHT22;38261;54.090;13.382;2022-07-29T06:03:27;23.50;92.70
52321;DHT22;38261;54.090;13.382;2022-07-29T06:04:49;23.60;92.70
52321;DHT22;38261;54.090;13.382;2022-07-29T06:06:12;23.90;92.40
52321;DHT22;38261;54.090;13.382;2022-07-29T06:07:34;24.20;92.20
52321;DHT22;38261;54.090;13.382;2022-07-29T06:08:57;24.40;92.10
52321;DHT22;38261;54.090;13.382;2022-07-29T06:10:19;24.70;91.50
52321;DHT22;38261;54.090;13.382;2022-07-29T06:11:44;24.60;91.50
52321;DHT22;38261;54.090;13.382;2022-07-29T06:13:07;24.70;91.50
52321;DHT22;38261;54.090;13.382;2022-07-29T06:14:29;24.80;91.30
52321;DHT22;38261;54.090;13.382;2022-07-29T06:15:51;24.80;91.50
52321;DHT22;38261;54.090;13.382;2022-07-29T06:17:16;25.00;91.40
52321;DHT22;38261;54.090;13.382;2022-07-29T06:18:38;25.20;91.20
52321;DHT22;38261;54.090;13.382;2022-07-29T06:20:01;25.30;91.20
52321;DHT22;38261;54.090;13.382;2022-07-29T06:21:23;25.50;91.00
52321;DHT22;38261;54.090;13.382;2022-07-29T06:22:45;25.50;90.90
52321;DHT22;38261;54.090;13.382;2022-07-29T06:24:07;25.50;90.90
52321;DHT22;38261;54.090;13.382;2022-07-29T06:25:30;25.30;91.00
52321;DHT22;38261;54.090;13.382;2022-07-29T06:26:52;25.00;91.40
52321;DHT22;38261;54.090;13.382;2022-07-29T06:28:14;24.70;91.70
52321;DHT22;38261;54.090;13.382;2022-07-29T06:29:37;24.20;92.00
52321;DHT22;38261;54.090;13.382;2022-07-29T06:30:59;23.70;92.50
52321;DHT22;38261;54.090;13.382;2022-07-29T06:32:22;23.40;92.60
52321;DHT22;38261;54.090;13.382;2022-07-29T06:33:48;23.00;93.10
52321;DHT22;38261;54.090;13.382;2022-07-29T06:35:10;22.60;93.80
52321;DHT22;38261;54.090;13.382;2022-07-29T06:36:52;22.30;94.30
52321;DHT22;38261;54.090;13.382;2022-07-29T06:38:15;21.90;95.00
52321;DHT22;38261;54.090;13.382;2022-07-29T06:39:55;21.80;95.30
52321;DHT22;38261;54.090;13.382;2022-07-29T06:41:35;21.50;95.60
52321;DHT22;38261;54.090;13.382;2022-07-29T06:42:58;21.40;96.10
52321;DHT22;38261;54.090;13.382;2022-07-29T06:44:20;21.30;96.30
52321;DHT22;38261;54.090;13.382;2022-07-29T06:45:42;21.30;96.50
52321;DHT22;38261;54.090;13.382;2022-07-29T06:47:04;21.20;96.40
52321;DHT22;38261;54.090;13.382;2022-07-29T06:48:27;21.20;96.50
52321;DHT22;38261;54.090;13.382;2022-07-29T06:49:49;21.20;96.60
52321;DHT22;38261;54.090;13.382;2022-07-29T06:51:11;21.10;96.50
52321;DHT22;38261;54.090;13.382;2022-07-29T06:52:33;21.00;96.90
52321;DHT22;38261;54.090;13.382;2022-07-29T06:53:56;21.00;97.30
52321;DHT22;38261;54.090;13.382;2022-07-29T06:55:24;20.90;97.50
52321;DHT22;38261;54.090;13.382;2022-07-29T06:56:46;20.90;97.70
52321;DHT22;38261;54.090;13.382;2022-07-29T06:58:08;20.80;97.60
52321;DHT22;38261;54.090;13.382;2022-07-29T06:59:31;20.80;97.80
52321;DHT22;38261;54.090;13.382;2022-07-29T07:01:02;20.70;98.20
52321;DHT22;38261;54.090;13.382;2022-07-29T07:02:24;20.70;98.30
52321;DHT22;38261;54.090;13.382;2022-07-29T07:03:46;20.70;98.20
52321;DHT22;38261;54.090;13.382;2022-07-29T07:05:08;20.80;98.10
52321;DHT22;38261;54.090;13.382;2022-07-29T07:06:31;20.80;98.10
52321;DHT22;38261;54.090;13.382;2022-07-29T07:07:53;20.80;98.10
52321;DHT22;38261;54.090;13.382;2022-07-29T07:09:15;20.80;98.30
52321;DHT22;38261;54.090;13.382;2022-07-29T07:10:37;20.80;98.30
52321;DHT22;38261;54.090;13.382;2022-07-29T07:11:59;20.90;98.40
52321;DHT22;38261;54.090;13.382;2022-07-29T07:13:21;20.90;98.30
52321;DHT22;38261;54.090;13.382;2022-07-29T07:14:43;21.00;98.30
52321;DHT22;38261;54.090;13.382;2022-07-29T07:16:06;21.00;98.40
52321;DHT22;38261;54.090;13.382;2022-07-29T07:17:28;21.00;98.50
52321;DHT22;38261;54.090;13.382;2022-07-29T07:18:50;21.10;98.60
52321;DHT22;38261;54.090;13.382;2022-07-29T07:20:12;21.10;98.40
52321;DHT22;38261;54.090;13.382;2022-07-29T07:21:34;21.20;98.50
52321;DHT22;38261;54.090;13.382;2022-07-29T07:22:57;21.10;98.40
52321;DHT22;38261;54.090;13.382;2022-07-29T07:24:19;21.10;98.60
52321;DHT22;38261;54.090;13.382;2022-07-29T07:25:41;21.00;98.60
52321;DHT22;38261;54.090;13.382;2022-07-29T07:27:03;21.10;98.60
52321;DHT22;38261;54.090;13.382;2022-07-29T07:28:26;21.10;98.70
52321;DHT22;38261;54.090;13.382;2022-07-29T07:29:48;21.10;98.60
52321;DHT22;38261;54.090;13.382;2022-07-29T07:31:11;21.10;98.80
52321;DHT22;38261;54.090;13.382;2022-07-29T07:32:34;21.10;98.90
52321;DHT22;38261;54.090;13.382;2022-07-29T07:33:56;21.20;98.90
52321;DHT22;38261;54.090;13.382;2022-07-29T07:35:18;21.30;98.80
52321;DHT22;38261;54.090;13.382;2022-07-29T07:36:40;21.40;98.80
52321;DHT22;38261;54.090;13.382;2022-07-29T07:38:02;21.60;98.80
52321;DHT22;38261;54.090;13.382;2022-07-29T07:39:24;21.80;98.70
52321;DHT22;38261;54.090;13.382;2022-07-29T07:40:47;21.90;98.50
52321;DHT22;38261;54.090;13.382;2022-07-29T07:42:10;22.10;98.80
52321;DHT22;38261;54.090;13.382;2022-07-29T07:43:34;22.20;98.90
52321;DHT22;38261;54.090;13.382;2022-07-29T07:44:56;22.30;98.90
52321;DHT22;38261;54.090;13.382;2022-07-29T07:46:34;22.40;98.60
52321;DHT22;38261;54.090;13.382;2022-07-29T07:47:59;22.30;98.50
52321;DHT22;38261;54.090;13.382;2022-07-29T07:49:21;22.20;98.70
52321;DHT22;38261;54.090;13.382;2022-07-29T07:50:43;22.20;98.90
52321;DHT22;38261;54.090;13.382;2022-07-29T07:52:06;22.20;98.90
52321;DHT22;38261;54.090;13.382;2022-07-29T07:53:28;22.20;99.10
52321;DHT22;38261;54.090;13.382;2022-07-29T07:54:51;22.20;98.80
52321;DHT22;38261;54.090;13.382;2022-07-29T07:56:13;22.20;99.00
52321;DHT22;38261;54.090;13.382;2022-07-29T07:57:35;22.30;98.80
52321;DHT22;38261;54.090;13.382;2022-07-29T07:58:57;22.30;98.70
52321;DHT22;38261;54.090;13.382;2022-07-29T08:00:20;22.40;98.80
52321;DHT22;38261;54.090;13.382;2022-07-29T08:01:44;22.40;98.80
52321;DHT22;38261;54.090;13.382;2022-07-29T08:03:10;22.50;98.40
52321;DHT22;38261;54.090;13.382;2022-07-29T08:04:38;22.50;98.30
52321;DHT22;38261;54.090;13.382;2022-07-29T08:06:03;22.50;97.80
52321;DHT22;38261;54.090;13.382;2022-07-29T08:07:25;22.50;97.80
52321;DHT22;38261;54.090;13.382;2022-07-29T08:08:47;22.60;97.90
52321;DHT22;38261;54.090;13.382;2022-07-29T08:10:10;22.60;98.10
52321;DHT22;38261;54.090;13.382;2022-07-29T08:11:32;22.60;98.40
52321;DHT22;38261;54.090;13.382;2022-07-29T08:12:58;22.60;98.40
52321;DHT22;38261;54.090;13.382;2022-07-29T08:14:21;22.60;98.40
52321;DHT22;38261;54.090;13.382;2022-07-29T08:15:43;22.60;98.60
52321;DHT22;38261;54.090;13.382;2022-07-29T08:17:07;22.60;98.30
52321;DHT22;38261;54.090;13.382;2022-07-29T08:18:30;22.60;98.00
52321;DHT22;38261;54.090;13.382;2022-07-29T08:19:53;22.60;98.50
52321;DHT22;38261;54.090;13.382;2022-07-29T08:21:15;22.50;98.30
52321;DHT22;38261;54.090;13.382;2022-07-29T08:22:37;22.50;98.00
52321;DHT22;38261;54.090;13.382;2022-07-29T08:23:59;22.40;97.90
52321;DHT22;38261;54.090;13.382;2022-07-29T08:25:40;22.50;98.40
52321;DHT22;38261;54.090;13.382;2022-07-29T08:27:03;22.50;98.40
52321;DHT22;38261;54.090;13.382;2022-07-29T08:28:43;22.50;98.30
52321;DHT22;38261;54.090;13.382;2022-07-29T08:30:11;22.50;98.20
52321;DHT22;38261;54.090;13.382;2022-07-29T08:31:33;22.40;98.30
52321;DHT22;38261;54.090;13.382;2022-07-29T08:32:55;22.40;98.80
52321;DHT22;38261;54.090;13.382;2022-07-29T08:34:18;22.40;98.70
52321;DHT22;38261;54.090;13.382;2022-07-29T08:35:48;22.40;98.90
52321;DHT22;38261;54.090;13.382;2022-07-29T08:37:12;22.30;98.30
52321;DHT22;38261;54.090;13.382;2022-07-29T08:38:34;22.30;98.30
52321;DHT22;38261;54.090;13.382;2022-07-29T08:39:56;22.30;98.40
52321;DHT22;38261;54.090;13.382;2022-07-29T08:41:19;22.30;98.50
52321;DHT22;38261;54.090;13.382;2022-07-29T08:42:41;22.30;98.60
52321;DHT22;38261;54.090;13.382;2022-07-29T08:44:04;22.40;98.40
52321;DHT22;38261;54.090;13.382;2022-07-29T08:45:28;22.40;98.40
52321;DHT22;38261;54.090;13.382;2022-07-29T08:46:51;22.40;98.80
52321;DHT22;38261;54.090;13.382;2022-07-29T08:48:14;22.30;99.00
52321;DHT22;38261;54.090;13.382;2022-07-29T08:49:37;22.30;99.20
52321;DHT22;38261;54.090;13.382;2022-07-29T08:51:00;22.40;98.80
52321;DHT22;38261;54.090;13.382;2022-07-29T08:52:25;22.40;99.10
52321;DHT22;38261;54.090;13.382;2022-07-29T08:53:49;22.50;99.20